createdAt,value
2023-02-19T00:01:46.539Z,9.44
2023-02-19T00:04:17.641Z,9.33
2023-02-19T00:06:46.601Z,9.32
2023-02-19T00:09:16.379Z,9.41
2023-02-19T00:11:46.276Z,9.31
2023-02-19T00:14:17.266Z,9.35
2023-02-19T00:16:45.389Z,8.76
2023-02-19T00:19:16.468Z,9.29
2023-02-19T00:21:44.504Z,9.21
2023-02-19T00:24:14.333Z,9.24
2023-02-19T00:26:43.503Z,9.19
2023-02-19T00:29:14.528Z,9.19
2023-02-19T00:31:43.595Z,9.20
2023-02-19T00:34:13.837Z,9.22
2023-02-19T00:36:43.859Z,9.20
2023-02-19T00:39:15.408Z,9.17
2023-02-19T00:41:44.265Z,9.24
2023-02-19T00:44:13.161Z,9.18
2023-02-19T00:46:42.792Z,9.13
2023-02-19T00:49:16.297Z,9.22
2023-02-19T00:51:46.237Z,9.22
2023-02-19T00:54:14.778Z,9.18
2023-02-19T00:56:42.736Z,9.26
2023-02-19T00:59:11.310Z,8.91
2023-02-19T01:01:39.406Z,9.06
2023-02-19T01:04:07.860Z,9.06
2023-02-19T01:06:35.969Z,9.26
2023-02-19T01:09:07.149Z,9.22
2023-02-19T01:11:35.339Z,9.28
2023-02-19T01:14:03.612Z,9.31
2023-02-19T01:16:32.016Z,9.19
2023-02-19T01:19:00.519Z,9.14
2023-02-19T01:21:30.812Z,9.01
2023-02-19T01:23:59.066Z,9.32
2023-02-19T01:26:31.612Z,8.80
2023-02-19T01:29:00.144Z,9.17
2023-02-19T01:31:29.083Z,9.43
2023-02-19T01:33:59.431Z,9.46
2023-02-19T01:36:27.706Z,9.44
2023-02-19T01:38:56.138Z,8.97
2023-02-19T01:41:26.698Z,9.44
2023-02-19T01:44:00.001Z,9.08
2023-02-19T01:46:29.472Z,9.34
2023-02-19T01:49:00.741Z,8.94
2023-02-19T01:51:29.401Z,9.36
2023-02-19T01:54:00.828Z,9.34
2023-02-19T01:56:30.927Z,9.31
2023-02-19T01:59:01.872Z,8.20
2023-02-19T02:01:29.944Z,9.48
2023-02-19T02:03:58.304Z,8.59
2023-02-19T02:06:30.911Z,9.47
2023-02-19T02:09:17.681Z,9.45
2023-02-19T02:11:49.407Z,9.51
2023-02-19T02:14:22.222Z,9.50
2023-02-19T02:16:58.925Z,9.46
2023-02-19T02:19:38.783Z,9.53
2023-02-19T02:22:14.884Z,9.58
2023-02-19T02:25:03.112Z,9.34
2023-02-19T02:27:42.873Z,9.45
2023-02-19T02:30:30.243Z,9.54
2023-02-19T02:33:04.090Z,9.51
2023-02-19T02:35:37.594Z,9.55
2023-02-19T02:38:11.264Z,9.59
2023-02-19T02:40:44.298Z,9.57
2023-02-19T02:43:13.706Z,8.63
2023-02-19T02:45:43.386Z,9.25
2023-02-19T02:48:26.028Z,9.51
2023-02-19T02:51:00.484Z,9.47
2023-02-19T02:53:53.576Z,9.63
2023-02-19T02:56:22.627Z,9.39
2023-02-19T02:58:51.925Z,9.44
2023-02-19T03:01:42.999Z,9.58
2023-02-19T03:04:14.411Z,9.56
2023-02-19T03:06:45.888Z,9.60
2023-02-19T03:09:18.871Z,9.32
2023-02-19T03:12:07.900Z,9.56
2023-02-19T03:14:57.062Z,9.67
2023-02-19T03:17:51.816Z,9.35
2023-02-19T03:20:23.752Z,9.66
2023-02-19T03:22:54.242Z,9.65
2023-02-19T03:25:44.037Z,9.55
2023-02-19T03:28:17.939Z,9.56
2023-02-19T03:30:52.846Z,9.57
2023-02-19T03:33:27.629Z,9.41
2023-02-19T03:35:59.015Z,9.53
2023-02-19T03:38:33.308Z,9.53
2023-02-19T03:41:08.487Z,9.41
2023-02-19T03:43:42.483Z,9.37
2023-02-19T03:46:14.549Z,8.83
2023-02-19T03:48:52.086Z,9.42
2023-02-19T03:51:33.873Z,9.43
2023-02-19T03:54:13.709Z,9.39
2023-02-19T03:56:46.877Z,9.45
2023-02-19T03:59:21.929Z,8.96
2023-02-19T04:01:55.268Z,9.53
2023-02-19T04:04:29.421Z,9.42
2023-02-19T04:06:58.805Z,9.48
2023-02-19T04:09:35.528Z,9.46
2023-02-19T04:12:09.241Z,9.50
2023-02-19T04:14:42.109Z,9.50
2023-02-19T04:17:16.205Z,9.30
2023-02-19T04:19:49.234Z,9.38
2023-02-19T04:22:18.594Z,9.45
2023-02-19T04:24:50.295Z,9.41
2023-02-19T04:27:18.916Z,8.97
2023-02-19T04:29:46.937Z,9.61
2023-02-19T04:32:15.318Z,9.55
2023-02-19T04:34:43.435Z,9.53
2023-02-19T04:37:13.004Z,9.51
2023-02-19T04:39:40.933Z,9.55
2023-02-19T04:42:08.796Z,9.45
2023-02-19T04:44:36.674Z,9.42
2023-02-19T04:47:04.781Z,8.49
2023-02-19T04:49:32.815Z,9.44
2023-02-19T04:52:00.765Z,9.51
2023-02-19T04:54:30.011Z,9.45
2023-02-19T04:56:58.121Z,9.27
2023-02-19T04:59:26.139Z,9.54
2023-02-19T05:01:54.099Z,9.41
2023-02-19T05:04:22.070Z,9.38
2023-02-19T05:06:49.961Z,9.35
2023-02-19T05:09:17.720Z,9.13
2023-02-19T05:11:47.046Z,9.50
2023-02-19T05:14:15.011Z,9.44
2023-02-19T05:16:43.088Z,9.52
2023-02-19T05:19:11.934Z,9.49
2023-02-19T05:21:40.493Z,9.38
2023-02-19T05:24:08.840Z,9.45
2023-02-19T05:26:37.004Z,9.33
2023-02-19T05:29:06.345Z,9.51
2023-02-19T05:31:34.620Z,9.42
2023-02-19T05:34:03.285Z,9.44
2023-02-19T05:36:31.364Z,9.40
2023-02-19T05:38:59.845Z,9.22
2023-02-19T05:41:29.618Z,9.26
2023-02-19T05:43:58.465Z,9.18
2023-02-19T05:46:30.565Z,9.33
2023-02-19T05:48:59.588Z,9.29
2023-02-19T05:51:28.079Z,9.32
2023-02-19T05:53:57.716Z,9.10
2023-02-19T05:56:31.783Z,9.37
2023-02-19T05:59:00.796Z,9.28
2023-02-19T06:01:31.153Z,9.28
2023-02-19T06:03:59.671Z,9.28
2023-02-19T06:06:28.402Z,9.37
2023-02-19T06:08:56.420Z,9.33
2023-02-19T06:11:24.542Z,8.99
2023-02-19T06:13:52.469Z,8.52
2023-02-19T06:16:22.237Z,7.93
2023-02-19T06:18:52.190Z,7.69
2023-02-19T06:21:20.716Z,7.64
2023-02-19T06:23:49.059Z,6.78
2023-02-19T06:26:19.714Z,7.38
2023-02-19T06:28:49.371Z,7.23
2023-02-19T06:31:19.261Z,7.06
2023-02-19T06:33:47.610Z,6.99
2023-02-19T06:36:18.847Z,6.82
2023-02-19T06:38:46.652Z,6.62
2023-02-19T06:41:15.211Z,6.66
2023-02-19T06:43:43.329Z,6.80
2023-02-19T06:46:12.640Z,6.76
2023-02-19T06:48:42.171Z,6.45
2023-02-19T06:51:13.003Z,6.85
2023-02-19T06:53:42.349Z,6.62
2023-02-19T06:56:24.766Z,6.69
2023-02-19T06:58:53.216Z,6.72
2023-02-19T07:01:21.291Z,6.88
2023-02-19T07:03:49.336Z,6.65
2023-02-19T07:06:17.243Z,6.32
2023-02-19T07:08:46.549Z,6.92
2023-02-19T07:11:14.410Z,6.42
2023-02-19T07:13:42.269Z,6.87
2023-02-19T07:16:11.361Z,6.83
2023-02-19T07:18:40.689Z,6.86
2023-02-19T07:21:11.110Z,6.83
2023-02-19T07:23:39.614Z,6.90
2023-02-19T07:26:11.582Z,6.87
2023-02-19T07:28:39.630Z,6.34
2023-02-19T07:31:07.643Z,6.06
2023-02-19T07:33:35.738Z,6.76
2023-02-19T07:36:04.036Z,6.64
2023-02-19T07:38:31.852Z,6.80
2023-02-19T07:41:01.806Z,6.71
2023-02-19T07:43:33.211Z,6.71
2023-02-19T07:46:04.284Z,6.63
2023-02-19T07:48:32.186Z,6.36
2023-02-19T07:51:01.409Z,6.48
2023-02-19T07:53:29.644Z,6.61
2023-02-19T07:56:00.684Z,6.55
2023-02-19T07:58:28.852Z,6.38
2023-02-19T08:00:58.654Z,6.59
2023-02-19T08:03:25.825Z,6.70
2023-02-19T08:05:55.033Z,5.48
2023-02-19T08:08:22.951Z,6.62
2023-02-19T08:11:08.563Z,6.50
2023-02-19T08:13:36.529Z,6.34
2023-02-19T08:16:21.778Z,6.54
2023-02-19T08:18:54.705Z,6.53
2023-02-19T08:21:22.658Z,6.54
2023-02-19T08:23:51.284Z,6.52
2023-02-19T08:26:19.720Z,6.61
2023-02-19T08:28:47.697Z,6.42
2023-02-19T08:31:17.071Z,6.65
2023-02-19T08:33:45.009Z,6.52
2023-02-19T08:36:12.919Z,6.11
2023-02-19T08:38:40.953Z,6.45
2023-02-19T08:41:11.040Z,6.33
2023-02-19T08:43:39.593Z,6.24
2023-02-19T08:46:10.004Z,6.13
2023-02-19T08:48:40.719Z,5.96
2023-02-19T08:51:11.442Z,5.87
2023-02-19T08:53:41.811Z,5.95
2023-02-19T08:56:12.683Z,5.85
2023-02-19T08:58:41.496Z,5.68
2023-02-19T09:01:11.864Z,5.43
2023-02-19T09:03:41.929Z,5.48
2023-02-19T09:06:14.548Z,5.83
2023-02-19T09:08:42.660Z,5.00
2023-02-19T09:11:10.884Z,5.99
2023-02-19T09:13:39.158Z,6.16
2023-02-19T09:16:08.527Z,5.63
2023-02-19T09:18:36.496Z,5.62
2023-02-19T09:21:07.352Z,5.74
2023-02-19T09:23:36.445Z,5.82
2023-02-19T09:26:07.569Z,6.22
2023-02-19T09:28:35.461Z,6.54
2023-02-19T09:31:06.640Z,6.44
2023-02-19T09:33:34.680Z,6.32
2023-02-19T09:36:03.186Z,6.11
2023-02-19T09:38:32.708Z,6.15
2023-02-19T09:41:09.208Z,6.26
2023-02-19T09:43:38.431Z,6.34
2023-02-19T09:46:13.690Z,6.38
2023-02-19T09:48:41.843Z,6.62
2023-02-19T09:51:12.306Z,6.59
2023-02-19T09:53:45.377Z,6.51
2023-02-19T09:56:13.383Z,6.32
2023-02-19T09:58:48.584Z,6.42
2023-02-19T10:01:17.133Z,6.51
2023-02-19T10:03:47.175Z,6.71
2023-02-19T10:06:20.460Z,6.40
2023-02-19T10:08:52.421Z,6.85
2023-02-19T10:11:20.730Z,6.94
2023-02-19T10:13:52.087Z,6.75
2023-02-19T10:16:23.870Z,6.84
2023-02-19T10:18:52.460Z,6.22
2023-02-19T10:21:23.396Z,6.78
2023-02-19T10:23:56.063Z,6.98
2023-02-19T10:26:24.835Z,6.72
2023-02-19T10:28:54.155Z,6.95
2023-02-19T10:31:24.266Z,7.00
2023-02-19T10:33:52.957Z,6.88
2023-02-19T10:36:27.883Z,6.85
2023-02-19T10:38:59.579Z,7.02
2023-02-19T10:41:28.277Z,7.07
2023-02-19T10:44:01.201Z,7.09
2023-02-19T10:46:32.627Z,6.70
2023-02-19T10:49:02.832Z,6.08
2023-02-19T10:51:36.715Z,6.62
2023-02-19T10:54:09.157Z,6.31
2023-02-19T10:56:38.590Z,6.40
2023-02-19T10:59:26.482Z,6.58
2023-02-19T11:01:58.514Z,5.66
2023-02-19T11:04:33.929Z,7.14
2023-02-19T11:07:10.628Z,6.99
2023-02-19T11:09:42.732Z,6.58
2023-02-19T11:12:12.225Z,6.62
2023-02-19T11:14:43.549Z,6.50
2023-02-19T11:17:24.007Z,6.82
2023-02-19T11:19:54.621Z,7.19
2023-02-19T11:22:31.998Z,6.07
2023-02-19T11:25:07.129Z,6.98
2023-02-19T11:27:35.402Z,7.35
2023-02-19T11:30:36.231Z,7.51
2023-02-19T11:33:21.852Z,6.21
2023-02-19T11:35:50.849Z,7.56
2023-02-19T11:38:21.551Z,7.67
2023-02-19T11:40:56.041Z,7.70
2023-02-19T11:43:42.782Z,7.71
2023-02-19T11:46:18.356Z,7.21
2023-02-19T11:48:57.117Z,7.58
2023-02-19T11:51:57.288Z,7.77
2023-02-19T11:54:41.235Z,7.48
2023-02-19T11:57:22.907Z,7.60
2023-02-19T12:00:00.417Z,7.74
2023-02-19T12:02:47.458Z,7.95
2023-02-19T12:05:35.331Z,7.98
2023-02-19T12:08:29.998Z,7.84
2023-02-19T12:11:11.778Z,7.92
2023-02-19T12:14:03.037Z,8.05
2023-02-19T12:16:35.800Z,8.06
2023-02-19T12:19:19.593Z,8.16
2023-02-19T12:21:56.498Z,8.23
2023-02-19T12:24:50.420Z,7.96
2023-02-19T12:27:29.368Z,8.14
2023-02-19T12:30:14.110Z,8.18
2023-02-19T12:33:07.366Z,8.19
2023-02-19T12:35:57.490Z,8.34
2023-02-19T12:38:33.727Z,7.94
2023-02-19T12:41:19.609Z,7.81
2023-02-19T12:43:54.926Z,8.08
2023-02-19T12:46:31.010Z,7.02
2023-02-19T12:49:06.280Z,8.04
2023-02-19T12:51:41.715Z,8.05
2023-02-19T12:54:18.383Z,8.08
2023-02-19T12:56:51.680Z,8.17
2023-02-19T12:59:25.697Z,7.84
2023-02-19T13:02:02.851Z,7.87
2023-02-19T13:04:42.009Z,8.20
2023-02-19T13:07:14.804Z,8.34
2023-02-19T13:09:48.060Z,8.39
2023-02-19T13:12:22.474Z,8.41
2023-02-19T13:14:55.906Z,8.33
2023-02-19T13:17:28.513Z,8.16
2023-02-19T13:20:02.606Z,8.18
2023-02-19T13:22:56.251Z,8.50
2023-02-19T13:25:28.307Z,8.29
2023-02-19T13:28:19.207Z,8.08
2023-02-19T13:31:08.128Z,8.02
2023-02-19T13:33:47.660Z,7.96
2023-02-19T13:36:21.112Z,8.12
2023-02-19T13:38:50.413Z,7.70
2023-02-19T13:41:21.310Z,8.00
2023-02-19T13:43:57.202Z,8.18
2023-02-19T13:46:26.410Z,8.37
2023-02-19T13:49:26.127Z,8.36
2023-02-19T13:51:55.104Z,8.16
2023-02-19T13:54:26.278Z,8.46
2023-02-19T13:57:28.514Z,8.47
2023-02-19T13:59:57.237Z,8.44
2023-02-19T14:02:32.809Z,8.31
2023-02-19T14:05:07.236Z,8.18
2023-02-19T14:08:00.965Z,7.89
2023-02-19T14:11:02.499Z,8.09
2023-02-19T14:14:01.938Z,8.07
2023-02-19T14:16:50.413Z,8.03
2023-02-19T14:19:59.307Z,8.00
2023-02-19T14:23:06.752Z,7.91
2023-02-19T14:25:41.510Z,8.00
2023-02-19T14:28:19.362Z,8.13
2023-02-19T14:30:51.606Z,7.92
2023-02-19T14:33:23.121Z,7.89
2023-02-19T14:35:55.942Z,8.12
2023-02-19T14:38:28.533Z,8.13
2023-02-19T14:40:58.364Z,8.34
2023-02-19T14:43:27.952Z,8.33
2023-02-19T14:45:59.139Z,8.27
2023-02-19T14:48:30.387Z,8.37
2023-02-19T14:51:03.060Z,8.25
2023-02-19T14:53:32.999Z,7.85
2023-02-19T14:56:03.652Z,8.18
2023-02-19T14:58:36.929Z,7.99
2023-02-19T15:01:05.436Z,7.96
2023-02-19T15:03:36.055Z,7.98
2023-02-19T15:06:07.168Z,8.10
2023-02-19T15:08:39.299Z,7.76
2023-02-19T15:11:16.461Z,7.87
2023-02-19T15:13:45.960Z,7.95
2023-02-19T15:16:25.844Z,7.74
2023-02-19T15:18:56.669Z,7.83
2023-02-19T15:21:27.058Z,7.72
2023-02-19T15:23:57.055Z,7.85
2023-02-19T15:26:33.988Z,8.06
2023-02-19T15:29:03.544Z,7.78
2023-02-19T15:31:31.587Z,7.34
2023-02-19T15:33:59.630Z,7.95
2023-02-19T15:36:30.224Z,7.94
2023-02-19T15:39:00.576Z,7.86
2023-02-19T15:41:35.091Z,7.40
2023-02-19T15:44:14.781Z,8.07
2023-02-19T15:46:46.005Z,7.92
2023-02-19T15:49:19.811Z,7.79
2023-02-19T15:51:54.703Z,7.63
2023-02-19T15:54:27.840Z,7.55
2023-02-19T15:57:01.608Z,7.46
2023-02-19T15:59:36.755Z,7.20
2023-02-19T16:02:05.853Z,7.45
2023-02-19T16:04:36.597Z,7.38
2023-02-19T16:07:05.044Z,7.36
2023-02-19T16:09:35.768Z,7.34
2023-02-19T16:12:20.899Z,7.70
2023-02-19T16:14:49.387Z,7.67
2023-02-19T16:17:23.013Z,7.53
2023-02-19T16:19:55.518Z,7.45
2023-02-19T16:22:25.480Z,7.63
2023-02-19T16:24:56.128Z,7.76
2023-02-19T16:27:32.448Z,7.78
2023-02-19T16:30:04.475Z,7.74
2023-02-19T16:32:32.584Z,7.77
2023-02-19T16:35:00.507Z,7.62
2023-02-19T16:37:36.542Z,7.47
2023-02-19T16:40:50.673Z,7.45
2023-02-19T16:43:32.040Z,7.21
2023-02-19T16:46:01.197Z,6.88
2023-02-19T16:48:29.366Z,7.27
2023-02-19T16:50:57.427Z,7.09
2023-02-19T16:53:26.013Z,7.26
2023-02-19T16:55:53.783Z,7.17
2023-02-19T16:58:21.824Z,6.80
2023-02-19T17:00:51.127Z,7.11
2023-02-19T17:03:21.505Z,7.03
2023-02-19T17:05:50.645Z,7.08
2023-02-19T17:08:34.058Z,7.07
2023-02-19T17:11:03.935Z,6.51
2023-02-19T17:13:31.988Z,7.08
2023-02-19T17:16:01.377Z,6.94
2023-02-19T17:18:29.504Z,7.13
2023-02-19T17:21:02.482Z,7.08
2023-02-19T17:23:30.402Z,7.06
2023-02-19T17:25:58.446Z,7.09
2023-02-19T17:28:26.273Z,7.13
2023-02-19T17:30:54.148Z,7.02
2023-02-19T17:33:23.450Z,6.95
2023-02-19T17:35:51.516Z,7.22
2023-02-19T17:38:19.440Z,6.77
2023-02-19T17:40:47.356Z,7.14
2023-02-19T17:43:15.467Z,6.71
2023-02-19T17:45:43.448Z,7.09
2023-02-19T17:48:13.475Z,6.86
2023-02-19T17:50:43.325Z,7.07
2023-02-19T17:53:11.217Z,7.18
2023-02-19T17:55:39.153Z,7.15
2023-02-19T17:58:07.169Z,7.07
2023-02-19T18:00:36.450Z,7.01
2023-02-19T18:03:04.938Z,6.97
2023-02-19T18:05:32.874Z,6.92
2023-02-19T18:08:02.106Z,6.89
2023-02-19T18:10:30.550Z,6.86
2023-02-19T18:12:58.591Z,6.97
2023-02-19T18:15:27.627Z,6.76
2023-02-19T18:17:56.670Z,6.90
2023-02-19T18:20:25.953Z,6.82
2023-02-19T18:22:54.510Z,6.91
2023-02-19T18:25:24.627Z,6.99
2023-02-19T18:27:52.699Z,6.93
2023-02-19T18:30:23.063Z,6.87
2023-02-19T18:32:52.006Z,6.71
2023-02-19T18:35:20.877Z,6.77
2023-02-19T18:37:51.633Z,6.68
2023-02-19T18:40:20.602Z,6.76
2023-02-19T18:42:50.399Z,6.81
2023-02-19T18:45:18.632Z,6.81
2023-02-19T18:47:47.644Z,6.81
2023-02-19T18:50:16.230Z,6.83
2023-02-19T18:52:44.261Z,6.69
2023-02-19T18:55:12.970Z,6.77
2023-02-19T18:57:40.943Z,6.71
2023-02-19T19:00:12.406Z,6.75
2023-02-19T19:02:49.145Z,6.80
2023-02-19T19:05:18.272Z,6.85
2023-02-19T19:07:46.385Z,6.73
2023-02-19T19:10:14.786Z,6.98
2023-02-19T19:12:42.801Z,7.09
2023-02-19T19:15:12.368Z,7.04
2023-02-19T19:17:40.953Z,6.69
2023-02-19T19:20:10.720Z,6.85
2023-02-19T19:22:38.646Z,6.80
2023-02-19T19:25:07.468Z,6.60
2023-02-19T19:27:35.266Z,6.75
2023-02-19T19:30:03.825Z,6.76
2023-02-19T19:32:33.458Z,6.42
2023-02-19T19:35:02.612Z,6.64
2023-02-19T19:37:30.616Z,6.62
2023-02-19T19:39:58.527Z,6.67
2023-02-19T19:42:26.529Z,6.80
2023-02-19T19:44:57.227Z,6.70
2023-02-19T19:47:25.271Z,6.73
2023-02-19T19:49:54.666Z,6.30
2023-02-19T19:52:22.733Z,6.73
2023-02-19T19:54:53.953Z,6.66
2023-02-19T19:57:22.280Z,6.71
2023-02-19T19:59:51.044Z,6.61
2023-02-19T20:02:20.211Z,6.74
2023-02-19T20:04:48.118Z,6.73
2023-02-19T20:07:17.934Z,6.08
2023-02-19T20:09:48.955Z,6.63
2023-02-19T20:12:17.266Z,6.65
2023-02-19T20:14:46.383Z,6.51
2023-02-19T20:17:14.492Z,6.61
2023-02-19T20:19:42.710Z,6.70
2023-02-19T20:22:12.156Z,6.20
2023-02-19T20:24:41.566Z,6.71
2023-02-19T20:27:09.687Z,6.69
2023-02-19T20:29:38.206Z,6.74
2023-02-19T20:32:06.665Z,6.79
2023-02-19T20:34:34.649Z,6.72
2023-02-19T20:37:02.691Z,6.58
2023-02-19T20:39:30.683Z,6.62
2023-02-19T20:42:00.554Z,6.65
2023-02-19T20:44:29.768Z,6.63
2023-02-19T20:46:59.515Z,6.60
2023-02-19T20:49:30.228Z,6.32
2023-02-19T20:51:59.831Z,6.53
2023-02-19T20:54:29.857Z,6.48
2023-02-19T20:57:01.573Z,6.57
2023-02-19T20:59:35.334Z,6.55
2023-02-19T21:02:03.661Z,6.49
2023-02-19T21:04:31.595Z,6.45
2023-02-19T21:06:59.894Z,6.51
2023-02-19T21:09:28.490Z,6.64
2023-02-19T21:11:56.639Z,6.60
2023-02-19T21:14:26.656Z,6.60
2023-02-19T21:16:54.715Z,6.72
2023-02-19T21:19:23.239Z,6.70
2023-02-19T21:21:51.920Z,6.20
2023-02-19T21:24:19.901Z,6.71
2023-02-19T21:26:47.794Z,6.69
2023-02-19T21:29:18.961Z,6.69
2023-02-19T21:31:49.903Z,6.62
2023-02-19T21:34:20.137Z,6.68
2023-02-19T21:36:47.857Z,6.60
2023-02-19T21:39:17.740Z,6.03
2023-02-19T21:41:45.895Z,6.54
2023-02-19T21:44:14.256Z,6.30
2023-02-19T21:46:42.426Z,6.45
2023-02-19T21:49:12.787Z,6.44
2023-02-19T21:51:43.058Z,6.48
2023-02-19T21:54:15.219Z,6.51
2023-02-19T21:56:44.075Z,6.27
2023-02-19T21:59:12.418Z,6.50
2023-02-19T22:01:42.083Z,6.58
2023-02-19T22:04:15.187Z,6.57
2023-02-19T22:06:43.558Z,6.66
2023-02-19T22:09:13.049Z,6.51
2023-02-19T22:11:41.127Z,6.70
2023-02-19T22:14:09.169Z,6.39
2023-02-19T22:16:37.180Z,6.88
2023-02-19T22:19:05.588Z,6.82
2023-02-19T22:21:34.900Z,6.82
2023-02-19T22:24:04.425Z,6.79
2023-02-19T22:26:33.718Z,6.66
2023-02-19T22:29:05.916Z,6.97
2023-02-19T22:31:34.445Z,6.54
2023-02-19T22:34:02.499Z,6.98
2023-02-19T22:36:33.231Z,6.61
2023-02-19T22:39:02.911Z,6.97
2023-02-19T22:41:30.784Z,6.33
2023-02-19T22:43:59.711Z,6.79
2023-02-19T22:46:29.277Z,6.80
2023-02-19T22:48:58.061Z,6.64
2023-02-19T22:51:26.448Z,6.69
2023-02-19T22:53:56.530Z,6.12
2023-02-19T22:56:27.138Z,6.64
2023-02-19T22:58:55.895Z,6.63
2023-02-19T23:01:24.648Z,6.76
2023-02-19T23:03:54.820Z,6.74
2023-02-19T23:06:25.991Z,6.72
2023-02-19T23:08:54.678Z,6.34
2023-02-19T23:11:23.751Z,6.69
2023-02-19T23:13:53.638Z,6.64
2023-02-19T23:16:22.091Z,6.43
2023-02-19T23:18:50.332Z,6.64
2023-02-19T23:21:20.176Z,6.59
2023-02-19T23:23:48.860Z,6.69
2023-02-19T23:26:17.140Z,6.65
2023-02-19T23:28:45.445Z,6.75
2023-02-19T23:31:15.359Z,6.23
2023-02-19T23:33:44.147Z,6.84
2023-02-19T23:36:13.380Z,6.69
2023-02-19T23:38:41.939Z,6.76
2023-02-19T23:41:11.507Z,6.59
2023-02-19T23:43:39.766Z,6.60
2023-02-19T23:46:08.456Z,6.16
2023-02-19T23:48:37.908Z,6.54
2023-02-19T23:51:06.089Z,6.02
2023-02-19T23:53:34.273Z,6.68
2023-02-19T23:56:02.103Z,6.61
2023-02-19T23:58:30.214Z,6.45
